Topcliffe, United Kingdom
Current Conditions -  °F | °C
As of 8:50 AM on Saturday 29 Nov 2014 (Local Time) from EGXD Reporting Station
Overcast Overcast  
Wind Chill: 45°   Ceiling: 800
Heat Index: 48°   Visibility: 1.7mi
Dew Point: 48°   Wind: 7mph
Humidity: 100%   Direction: 120°ESE
Pressure: 29.88"   Gusts: NA
Location:  54.2°N, 1.38°W
Report Text: EGXD 290850Z AUTO 12006KT 2800 // OVC008/// 09/09 Q1012
Loading
Personal Weather Stations






























Interactive Weather Map New forecast layout! Learn more

10-Day Weather Forecast

Advertisements
Track Severe Weather on mobile